createdAt,value
2023-03-12T00:00:11.202Z,14.30
2023-03-12T00:02:38.705Z,13.40
2023-03-12T00:05:06.864Z,13.10
2023-03-12T00:07:36.509Z,12.50
2023-03-12T00:10:05.376Z,13.90
2023-03-12T00:12:32.839Z,12.70
2023-03-12T00:15:01.158Z,12.30
2023-03-12T00:17:30.310Z,14.50
2023-03-12T00:19:58.277Z,15.10
2023-03-12T00:22:25.931Z,14.60
2023-03-12T00:24:55.848Z,14.00
2023-03-12T00:27:24.460Z,11.80
2023-03-12T00:29:52.076Z,15.10
2023-03-12T00:32:19.852Z,10.90
2023-03-12T00:34:55.938Z,11.20
2023-03-12T00:37:23.380Z,12.70
2023-03-12T00:39:50.975Z,15.90
2023-03-12T00:42:18.600Z,11.00
2023-03-12T00:44:46.287Z,15.50
2023-03-12T00:47:14.123Z,15.40
2023-03-12T00:49:41.770Z,14.70
2023-03-12T00:52:09.233Z,15.00
2023-03-12T00:54:36.733Z,13.20
2023-03-12T00:57:04.376Z,13.80
2023-03-12T00:59:32.220Z,13.00
2023-03-12T01:01:59.611Z,14.00
2023-03-12T01:04:27.098Z,13.20
2023-03-12T01:06:55.729Z,12.80
2023-03-12T01:09:23.125Z,13.30
2023-03-12T01:11:50.654Z,13.80
2023-03-12T01:14:18.021Z,13.70
2023-03-12T01:16:45.525Z,13.60
2023-03-12T01:19:12.992Z,13.30
2023-03-12T01:21:40.576Z,13.00
2023-03-12T01:24:08.365Z,12.30
2023-03-12T01:26:35.816Z,14.20
2023-03-12T01:29:03.279Z,13.00
2023-03-12T01:31:30.824Z,11.20
2023-03-12T01:33:58.216Z,15.20
2023-03-12T01:36:29.709Z,11.70
2023-03-12T01:38:59.483Z,13.10
2023-03-12T01:41:32.446Z,13.50
2023-03-12T01:44:03.647Z,14.30
2023-03-12T01:46:38.550Z,10.80
2023-03-12T01:49:20.624Z,14.00
2023-03-12T01:52:06.389Z,13.00
2023-03-12T01:55:00.233Z,14.80
2023-03-12T01:57:35.753Z,17.90
2023-03-12T02:00:20.826Z,17.00
2023-03-12T02:02:49.777Z,12.40
2023-03-12T02:05:51.092Z,11.90
2023-03-12T02:08:19.049Z,16.50
2023-03-12T02:10:46.575Z,15.60
2023-03-12T02:13:14.130Z,18.00
2023-03-12T02:15:41.634Z,19.10
2023-03-12T02:18:15.498Z,11.50
2023-03-12T02:21:09.178Z,13.50
2023-03-12T02:24:01.660Z,17.00
2023-03-12T02:26:30.461Z,17.20
2023-03-12T02:29:00.603Z,15.80
2023-03-12T02:31:35.264Z,15.50
2023-03-12T02:34:03.412Z,14.10
2023-03-12T02:36:30.866Z,18.80
2023-03-12T02:38:58.518Z,16.70
2023-03-12T02:41:39.997Z,16.40
2023-03-12T02:46:55.283Z,17.00
2023-03-12T02:49:27.357Z,16.90
2023-03-12T02:51:55.131Z,13.50
2023-03-12T02:54:24.461Z,15.50
2023-03-12T02:56:52.604Z,18.50
2023-03-12T02:59:22.856Z,16.30
2023-03-12T03:01:56.937Z,20.90
2023-03-12T03:04:28.692Z,15.00
2023-03-12T03:06:57.817Z,20.90
2023-03-12T03:09:25.899Z,18.10
2023-03-12T03:11:53.441Z,18.60
2023-03-12T03:14:20.992Z,19.60
2023-03-12T03:16:48.397Z,18.90
2023-03-12T03:19:16.079Z,18.90
2023-03-12T03:21:43.951Z,21.10
2023-03-12T03:24:11.614Z,17.60
2023-03-12T03:26:39.257Z,18.90
2023-03-12T03:29:06.738Z,18.40
2023-03-12T03:31:34.173Z,20.70
2023-03-12T03:34:01.612Z,21.50
2023-03-12T03:36:29.202Z,22.80
2023-03-12T03:38:56.642Z,18.60
2023-03-12T03:41:24.480Z,18.20
2023-03-12T03:43:51.881Z,18.10
2023-03-12T03:46:19.363Z,22.50
2023-03-12T03:48:46.819Z,20.00
2023-03-12T03:51:14.528Z,18.20
2023-03-12T03:53:42.049Z,18.40
2023-03-12T03:56:15.681Z,16.50
2023-03-12T03:58:44.078Z,21.20
2023-03-12T04:01:14.086Z,19.10
2023-03-12T04:03:41.604Z,27.60
2023-03-12T04:06:09.369Z,15.70
2023-03-12T04:08:37.900Z,21.20
2023-03-12T04:11:10.972Z,18.80
2023-03-12T04:13:38.844Z,22.60
2023-03-12T04:16:07.267Z,27.20
2023-03-12T04:18:39.075Z,18.20
2023-03-12T04:21:09.522Z,14.90
2023-03-12T04:23:37.764Z,22.30
2023-03-12T04:26:06.633Z,22.80
2023-03-12T04:28:35.471Z,23.50
2023-03-12T04:31:06.963Z,26.90
2023-03-12T04:33:37.783Z,16.60
2023-03-12T04:36:06.956Z,24.60
2023-03-12T04:38:34.455Z,20.50
2023-03-12T04:41:10.641Z,16.60
2023-03-12T04:43:38.640Z,17.50
2023-03-12T04:46:06.812Z,26.70
2023-03-12T04:48:35.915Z,19.20
2023-03-12T04:51:05.012Z,19.80
2023-03-12T04:53:33.014Z,24.80
2023-03-12T04:56:00.691Z,18.60
2023-03-12T04:58:28.130Z,23.60
2023-03-12T05:00:55.665Z,25.40
2023-03-12T05:03:23.195Z,17.70
2023-03-12T05:05:50.639Z,25.70
2023-03-12T05:08:18.053Z,20.30
2023-03-12T05:10:46.006Z,19.50
2023-03-12T05:13:20.767Z,19.80
2023-03-12T05:15:50.817Z,20.30
2023-03-12T05:18:20.619Z,16.40
2023-03-12T05:21:05.592Z,22.70
2023-03-12T05:23:33.429Z,17.50
2023-03-12T05:26:01.585Z,19.40
2023-03-12T05:28:30.468Z,15.40
2023-03-12T05:30:59.725Z,27.90
2023-03-12T05:33:28.719Z,16.10
2023-03-12T05:35:56.202Z,17.40
2023-03-12T05:38:23.903Z,24.80
2023-03-12T05:40:57.356Z,15.90
2023-03-12T05:43:25.876Z,17.20
2023-03-12T05:45:54.020Z,19.40
2023-03-12T05:48:21.481Z,22.40
2023-03-12T05:50:48.974Z,21.10
2023-03-12T05:53:16.419Z,18.70
2023-03-12T05:55:43.949Z,16.00
2023-03-12T05:58:11.380Z,26.60
2023-03-12T06:00:38.964Z,26.10
2023-03-12T06:03:06.458Z,20.30
2023-03-12T06:05:35.928Z,19.80
2023-03-12T06:08:04.882Z,23.60
2023-03-12T06:10:32.239Z,25.20
2023-03-12T06:12:59.628Z,19.30
2023-03-12T06:15:27.057Z,16.40
2023-03-12T06:17:54.505Z,17.70
2023-03-12T06:20:23.282Z,20.60
2023-03-12T06:22:50.778Z,19.00
2023-03-12T06:25:18.245Z,29.50
2023-03-12T06:27:45.602Z,18.10
2023-03-12T06:30:14.073Z,15.20
2023-03-12T06:32:41.581Z,19.40
2023-03-12T06:35:09.682Z,16.00
2023-03-12T06:37:37.168Z,21.90
2023-03-12T06:40:05.242Z,29.00
2023-03-12T06:42:32.667Z,23.50
2023-03-12T06:44:59.977Z,20.30
2023-03-12T06:47:27.744Z,22.10
2023-03-12T06:49:55.141Z,22.80
2023-03-12T06:52:22.626Z,17.50
2023-03-12T06:54:50.036Z,21.80
2023-03-12T06:57:17.451Z,20.90
2023-03-12T06:59:44.821Z,20.30
2023-03-12T07:02:12.719Z,18.60
2023-03-12T07:04:40.117Z,19.60
2023-03-12T07:07:08.969Z,20.10
2023-03-12T07:09:37.561Z,23.70
2023-03-12T07:12:05.333Z,24.40
2023-03-12T07:14:32.735Z,19.80
2023-03-12T07:17:02.041Z,22.20
2023-03-12T07:19:30.387Z,23.10
2023-03-12T07:21:58.047Z,27.60
2023-03-12T07:24:25.464Z,27.30
2023-03-12T07:26:52.793Z,21.30
2023-03-12T07:29:20.280Z,20.70
2023-03-12T07:31:48.648Z,24.00
2023-03-12T07:34:16.107Z,21.50
2023-03-12T07:36:43.893Z,23.10
2023-03-12T07:39:11.416Z,21.50
2023-03-12T07:41:39.170Z,27.00
2023-03-12T07:44:06.941Z,26.80
2023-03-12T07:46:34.544Z,22.50
2023-03-12T07:49:02.135Z,22.50
2023-03-12T07:51:29.573Z,20.20
2023-03-12T07:53:57.089Z,22.50
2023-03-12T07:56:24.584Z,23.60
2023-03-12T07:58:52.693Z,20.40
2023-03-12T08:01:20.161Z,23.60
2023-03-12T08:03:47.681Z,23.10
2023-03-12T08:06:15.266Z,21.90
2023-03-12T08:08:42.773Z,20.20
2023-03-12T08:11:10.549Z,24.30
2023-03-12T08:13:37.941Z,20.50
2023-03-12T08:16:07.560Z,20.50
2023-03-12T08:18:36.596Z,16.90
2023-03-12T08:21:04.522Z,25.20
2023-03-12T08:23:32.025Z,18.40
2023-03-12T08:25:59.418Z,23.30
2023-03-12T08:28:27.022Z,24.90
2023-03-12T08:30:56.126Z,19.40
2023-03-12T08:33:23.609Z,25.50
2023-03-12T08:35:51.350Z,21.30
2023-03-12T08:38:19.107Z,21.50
2023-03-12T08:40:46.487Z,22.60
2023-03-12T08:43:14.103Z,17.90
2023-03-12T08:45:41.774Z,19.10
2023-03-12T08:48:09.226Z,22.20
2023-03-12T08:50:37.400Z,19.40
2023-03-12T08:53:04.830Z,24.10
2023-03-12T08:55:32.831Z,13.50
2023-03-12T08:58:03.442Z,15.30
2023-03-12T09:00:31.198Z,20.30
2023-03-12T09:02:58.751Z,19.30
2023-03-12T09:05:30.087Z,20.20
2023-03-12T09:10:30.668Z,22.50
2023-03-12T09:12:59.081Z,17.30
2023-03-12T09:15:26.807Z,18.40
2023-03-12T09:17:55.866Z,17.50
2023-03-12T09:20:24.193Z,16.40
2023-03-12T09:22:52.053Z,18.60
2023-03-12T09:25:19.653Z,17.60
2023-03-12T09:27:48.668Z,15.70
2023-03-12T09:30:20.914Z,17.00
2023-03-12T09:32:48.391Z,15.50
2023-03-12T09:35:16.851Z,21.50
2023-03-12T09:37:49.776Z,18.40
2023-03-12T09:40:23.340Z,23.70
2023-03-12T09:42:55.373Z,17.20
2023-03-12T09:45:31.440Z,17.20
2023-03-12T09:48:03.044Z,19.80
2023-03-12T09:50:43.690Z,17.80
2023-03-12T09:53:19.865Z,17.30
2023-03-12T09:55:50.982Z,16.60
2023-03-12T09:58:30.902Z,15.70
2023-03-12T10:01:13.022Z,19.60
2023-03-12T10:04:06.150Z,18.30
2023-03-12T10:07:11.946Z,14.50
2023-03-12T10:10:28.753Z,18.40
2023-03-12T10:13:40.714Z,14.50
2023-03-12T10:16:46.926Z,19.70
2023-03-12T10:19:56.626Z,14.90
2023-03-12T10:23:24.641Z,14.90
2023-03-12T10:26:15.525Z,15.40
2023-03-12T10:28:49.466Z,14.10
2023-03-12T10:31:29.884Z,15.10
2023-03-12T10:34:00.537Z,12.20
2023-03-12T10:36:35.021Z,15.20
2023-03-12T10:39:03.533Z,15.90
2023-03-12T10:41:34.919Z,15.60
2023-03-12T10:44:08.357Z,15.50
2023-03-12T10:47:17.037Z,13.70
2023-03-12T10:49:49.996Z,15.30
2023-03-12T10:52:21.809Z,14.00
2023-03-12T10:54:53.777Z,16.90
2023-03-12T10:57:21.421Z,14.20
2023-03-12T10:59:50.965Z,14.10
2023-03-12T11:03:03.848Z,13.80
2023-03-12T11:05:34.588Z,13.60
2023-03-12T11:08:04.147Z,18.70
2023-03-12T11:10:46.487Z,17.80
2023-03-12T11:13:42.167Z,17.50
2023-03-12T11:16:18.786Z,19.30
2023-03-12T11:19:01.472Z,21.40
2023-03-12T11:21:32.211Z,15.10
2023-03-12T11:23:59.580Z,17.10
2023-03-12T11:26:52.242Z,17.60
2023-03-12T11:29:33.151Z,16.60
2023-03-12T11:32:13.086Z,17.60
2023-03-12T11:34:42.029Z,16.40
2023-03-12T11:37:59.866Z,15.90
2023-03-12T11:40:45.931Z,17.00
2023-03-12T11:43:45.715Z,17.40
2023-03-12T11:46:22.041Z,14.90
2023-03-12T11:49:01.997Z,11.80
2023-03-12T11:52:11.542Z,16.30
2023-03-12T11:55:03.474Z,14.10
2023-03-12T11:57:40.844Z,13.60
2023-03-12T12:00:45.854Z,19.00
2023-03-12T12:03:57.440Z,19.20
2023-03-12T12:07:03.736Z,16.20
2023-03-12T12:09:43.308Z,16.80
2023-03-12T12:12:55.319Z,16.20
2023-03-12T12:16:16.320Z,12.40
2023-03-12T12:19:04.627Z,18.20
2023-03-12T12:22:12.627Z,16.30
2023-03-12T12:25:35.994Z,19.50
2023-03-12T12:28:21.472Z,13.10
2023-03-12T12:31:34.720Z,13.90
2023-03-12T12:34:26.455Z,20.50
2023-03-12T12:37:17.661Z,16.30
2023-03-12T12:39:56.591Z,15.10
2023-03-12T12:42:31.319Z,16.50
2023-03-12T12:45:02.500Z,14.30
2023-03-12T12:50:31.716Z,14.40
2023-03-12T12:53:21.522Z,11.20
2023-03-12T12:56:36.874Z,12.80
2023-03-12T12:59:31.701Z,14.10
2023-03-12T13:02:01.348Z,14.50
2023-03-12T13:04:35.327Z,12.60
2023-03-12T13:07:27.527Z,11.30
2023-03-12T13:09:58.137Z,12.90
2023-03-12T13:12:35.303Z,9.40
2023-03-12T13:15:28.776Z,14.40
2023-03-12T13:18:20.870Z,9.10
2023-03-12T13:20:54.385Z,9.40
2023-03-12T13:23:59.900Z,13.20
2023-03-12T13:27:10.808Z,13.80
2023-03-12T13:29:42.018Z,15.10
2023-03-12T13:34:58.450Z,13.40
2023-03-12T13:37:53.135Z,12.40
2023-03-12T13:40:29.597Z,14.50
2023-03-12T13:43:17.778Z,10.80
2023-03-12T13:45:48.205Z,12.70
2023-03-12T13:48:19.924Z,11.80
2023-03-12T13:50:55.912Z,12.50
2023-03-12T13:53:40.410Z,12.20
2023-03-12T13:56:15.277Z,11.50
2023-03-12T13:58:57.614Z,14.30
2023-03-12T14:01:31.552Z,10.70
2023-03-12T14:04:04.839Z,14.80
2023-03-12T14:07:09.900Z,12.90
2023-03-12T14:09:56.161Z,13.20
2023-03-12T14:13:02.976Z,12.70
2023-03-12T14:15:54.518Z,11.10
2023-03-12T14:18:26.409Z,12.80
2023-03-12T14:21:06.369Z,10.50
2023-03-12T14:23:41.287Z,13.00
2023-03-12T14:26:21.663Z,15.40
2023-03-12T14:28:59.276Z,13.10
2023-03-12T14:31:28.890Z,9.10
2023-03-12T14:34:03.103Z,14.10
2023-03-12T14:37:22.017Z,10.10
2023-03-12T14:39:57.985Z,12.20
2023-03-12T14:42:36.966Z,8.60
2023-03-12T14:45:15.044Z,11.20
2023-03-12T14:47:48.348Z,9.70
2023-03-12T14:50:28.334Z,7.50
2023-03-12T14:53:13.899Z,12.30
2023-03-12T14:55:41.265Z,10.40
2023-03-12T14:58:20.025Z,12.90
2023-03-12T15:00:58.362Z,11.20
2023-03-12T15:03:27.820Z,9.60
2023-03-12T15:05:56.411Z,9.40
2023-03-12T15:08:24.836Z,7.50
2023-03-12T15:10:59.083Z,7.80
2023-03-12T15:13:27.779Z,16.20
2023-03-12T15:15:55.999Z,11.60
2023-03-12T15:18:25.598Z,11.60
2023-03-12T15:20:54.449Z,12.40
2023-03-12T15:23:23.977Z,11.40
2023-03-12T15:26:16.562Z,7.90
2023-03-12T15:28:44.096Z,8.60
2023-03-12T15:31:16.043Z,8.80
2023-03-12T15:33:44.948Z,8.20
2023-03-12T15:36:17.375Z,11.60
2023-03-12T15:38:49.171Z,8.80
2023-03-12T15:41:49.199Z,12.90
2023-03-12T15:44:21.285Z,12.50
2023-03-12T15:46:53.492Z,12.70
2023-03-12T15:49:33.175Z,9.90
2023-03-12T15:52:12.710Z,10.40
2023-03-12T15:54:40.928Z,12.30
2023-03-12T15:57:25.074Z,11.20
2023-03-12T16:00:12.828Z,8.80
2023-03-12T16:02:52.638Z,12.60
2023-03-12T16:05:25.219Z,13.90
2023-03-12T16:07:53.289Z,12.40
2023-03-12T16:10:23.843Z,11.40
2023-03-12T16:13:02.044Z,9.40
2023-03-12T16:15:38.296Z,8.80
2023-03-12T16:18:06.151Z,9.20
2023-03-12T16:20:33.576Z,11.50
2023-03-12T16:23:00.942Z,12.30
2023-03-12T16:25:28.584Z,14.00
2023-03-12T16:28:01.120Z,11.60
2023-03-12T16:30:33.091Z,14.00
2023-03-12T16:33:04.515Z,11.40
2023-03-12T16:35:34.189Z,12.50
2023-03-12T16:38:02.773Z,12.10
2023-03-12T16:40:38.193Z,12.80
2023-03-12T16:43:14.291Z,15.40
2023-03-12T16:45:45.314Z,14.20
2023-03-12T16:48:24.183Z,15.40
2023-03-12T16:50:55.867Z,14.30
2023-03-12T16:53:24.640Z,15.90
2023-03-12T16:55:58.682Z,12.40
2023-03-12T16:58:27.690Z,13.10
2023-03-12T17:00:56.025Z,17.20
2023-03-12T17:03:37.268Z,17.40
2023-03-12T17:06:08.236Z,16.20
2023-03-12T17:08:36.038Z,13.50
2023-03-12T17:11:22.025Z,14.90
2023-03-12T17:13:58.623Z,16.10
2023-03-12T17:16:27.130Z,13.50
2023-03-12T17:18:54.698Z,16.50
2023-03-12T17:21:23.044Z,12.20
2023-03-12T17:23:50.983Z,11.00
2023-03-12T17:26:19.178Z,19.10
2023-03-12T17:28:47.104Z,14.70
2023-03-12T17:31:14.640Z,17.00
2023-03-12T17:33:43.359Z,11.70
2023-03-12T17:36:11.088Z,15.20
2023-03-12T17:38:38.615Z,14.20
2023-03-12T17:41:16.526Z,19.00
2023-03-12T17:43:51.004Z,18.50
2023-03-12T17:46:18.593Z,18.00
2023-03-12T17:48:46.112Z,13.50
2023-03-12T17:51:13.504Z,14.90
2023-03-12T17:53:42.092Z,16.40
2023-03-12T17:56:12.468Z,13.70
2023-03-12T17:58:40.138Z,13.30
2023-03-12T18:01:08.607Z,22.70
2023-03-12T18:03:36.149Z,17.60
2023-03-12T18:06:04.329Z,16.80
2023-03-12T18:08:31.817Z,20.40
2023-03-12T18:10:59.630Z,20.80
2023-03-12T18:13:27.094Z,13.90
2023-03-12T18:15:57.250Z,19.40
2023-03-12T18:18:26.442Z,17.70
2023-03-12T18:20:54.194Z,17.90
2023-03-12T18:23:23.725Z,13.90
2023-03-12T18:25:51.559Z,13.60
2023-03-12T18:28:19.358Z,17.80
2023-03-12T18:30:48.228Z,16.80
2023-03-12T18:33:16.223Z,20.60
2023-03-12T18:35:45.167Z,14.80
2023-03-12T18:38:13.071Z,20.00
2023-03-12T18:40:40.523Z,16.10
2023-03-12T18:43:08.175Z,15.30
2023-03-12T18:45:35.566Z,20.40
2023-03-12T18:48:02.892Z,20.00
2023-03-12T18:50:30.444Z,15.30
2023-03-12T18:52:57.854Z,15.60
2023-03-12T18:55:25.385Z,14.40
2023-03-12T18:57:52.750Z,15.50
2023-03-12T19:00:20.326Z,18.50
2023-03-12T19:02:48.507Z,18.80
2023-03-12T19:05:17.314Z,22.50
2023-03-12T19:07:44.827Z,15.10
2023-03-12T19:10:13.566Z,17.00
2023-03-12T19:12:54.294Z,20.00
2023-03-12T19:15:24.216Z,16.70
2023-03-12T19:17:52.653Z,13.40
2023-03-12T19:20:21.150Z,11.30
2023-03-12T19:22:48.618Z,15.20
2023-03-12T19:25:16.075Z,16.90
2023-03-12T19:27:43.487Z,18.50
2023-03-12T19:30:12.041Z,12.00
2023-03-12T19:32:44.233Z,16.00
2023-03-12T19:35:15.045Z,16.90
2023-03-12T19:37:43.137Z,11.90
2023-03-12T19:40:13.338Z,14.90
2023-03-12T19:42:40.785Z,19.00
2023-03-12T19:45:09.135Z,16.90
2023-03-12T19:47:36.563Z,16.30
2023-03-12T19:50:04.797Z,12.30
2023-03-12T19:52:32.227Z,11.30
2023-03-12T19:55:05.236Z,15.00
2023-03-12T19:57:34.284Z,13.00
2023-03-12T20:00:01.923Z,11.10
2023-03-12T20:02:29.556Z,15.00
2023-03-12T20:04:57.086Z,13.70
2023-03-12T20:07:24.755Z,14.80
2023-03-12T20:09:52.451Z,11.40
2023-03-12T20:12:20.098Z,14.00
2023-03-12T20:14:47.856Z,9.70
2023-03-12T20:17:15.853Z,13.30
2023-03-12T20:19:43.473Z,10.70
2023-03-12T20:22:10.954Z,11.40
2023-03-12T20:24:38.329Z,10.20
2023-03-12T20:27:06.094Z,18.10
2023-03-12T20:29:33.640Z,9.60
2023-03-12T20:32:01.086Z,10.70
2023-03-12T20:34:28.546Z,13.10
2023-03-12T20:36:55.899Z,13.20
2023-03-12T20:39:23.278Z,11.40
2023-03-12T20:41:50.730Z,8.80
2023-03-12T20:44:18.479Z,6.30
2023-03-12T20:46:47.560Z,9.00
2023-03-12T20:49:15.337Z,12.80
2023-03-12T20:51:43.074Z,5.60
2023-03-12T20:54:10.866Z,9.70
2023-03-12T20:56:40.370Z,6.20
2023-03-12T20:59:07.745Z,8.70
2023-03-12T21:01:35.202Z,7.90
2023-03-12T21:04:02.718Z,9.50
2023-03-12T21:06:30.286Z,6.30
2023-03-12T21:08:58.504Z,6.50
2023-03-12T21:11:29.050Z,5.70
2023-03-12T21:13:56.547Z,6.10
2023-03-12T21:16:24.077Z,9.50
2023-03-12T21:18:56.415Z,8.10
2023-03-12T21:21:24.134Z,7.10
2023-03-12T21:23:51.983Z,12.30
2023-03-12T21:26:19.806Z,5.30
2023-03-12T21:28:47.282Z,7.80
2023-03-12T21:31:17.380Z,10.40
2023-03-12T21:33:45.160Z,7.50
2023-03-12T21:36:15.142Z,11.10
2023-03-12T21:38:43.084Z,9.50
2023-03-12T21:41:17.034Z,10.60
2023-03-12T21:43:46.222Z,8.30
2023-03-12T21:46:18.903Z,8.80
2023-03-12T21:48:48.114Z,7.90
2023-03-12T21:51:17.508Z,9.50
2023-03-12T21:53:45.333Z,6.10
2023-03-12T21:56:12.774Z,4.80
2023-03-12T21:58:40.959Z,6.80
2023-03-12T22:01:17.596Z,6.60
2023-03-12T22:03:46.438Z,5.50
2023-03-12T22:06:15.661Z,6.60
2023-03-12T22:08:44.453Z,6.60
2023-03-12T22:11:11.852Z,4.20
2023-03-12T22:13:39.420Z,5.70
2023-03-12T22:16:09.013Z,5.60
2023-03-12T22:18:45.935Z,5.50
2023-03-12T22:21:20.032Z,4.20
2023-03-12T22:23:51.750Z,7.80
2023-03-12T22:26:23.914Z,7.50
2023-03-12T22:28:54.677Z,6.00
2023-03-12T22:31:25.303Z,6.10
2023-03-12T22:33:52.781Z,7.10
2023-03-12T22:36:21.202Z,5.20
2023-03-12T22:38:49.346Z,4.90
2023-03-12T22:41:29.373Z,5.80
2023-03-12T22:44:05.888Z,4.80
2023-03-12T22:46:34.159Z,6.50
2023-03-12T22:49:04.007Z,6.30
2023-03-12T22:51:33.238Z,4.10
2023-03-12T22:54:00.848Z,6.30
2023-03-12T22:56:28.979Z,6.50
2023-03-12T22:58:56.626Z,6.90
2023-03-12T23:01:24.263Z,6.50
2023-03-12T23:03:52.205Z,4.10
2023-03-12T23:06:23.738Z,6.90
2023-03-12T23:08:52.458Z,5.20
2023-03-12T23:11:20.897Z,6.60
2023-03-12T23:13:49.790Z,4.70
2023-03-12T23:16:21.080Z,4.80
2023-03-12T23:21:20.386Z,5.50
2023-03-12T23:26:24.061Z,5.60
2023-03-12T23:28:53.523Z,4.10
2023-03-12T23:31:22.000Z,5.50
2023-03-12T23:33:49.535Z,4.50
2023-03-12T23:36:21.130Z,5.10
2023-03-12T23:38:50.161Z,5.10
2023-03-12T23:41:26.831Z,6.00
2023-03-12T23:43:54.292Z,5.40
2023-03-12T23:46:22.402Z,4.90
2023-03-12T23:48:50.305Z,5.50
2023-03-12T23:51:23.993Z,4.10
2023-03-12T23:53:55.896Z,5.90
2023-03-12T23:56:27.136Z,4.50
